Time;durP1;ratioP1;P1;durP2;ratioP2;P2;SDS_P1;SDS_P2;PMS_P1;PMS_P2;Temp;Humidity;BMP_temperature;BMP_pressure;BME280_temperature;BME280_humidity;BME280_pressure;Samples;Min_cycle;Max_cycle;Signal;HPM_P1;HPM_P2
2023/09/27 00:00:55;;;;;;;13.23;9.50;;;16.70;99.90;;;;;;5054744;28;20033;-70
2023/09/27 00:03:20;;;;;;;11.77;9.48;;;16.70;99.90;;;;;;5054902;28;20031;-70
2023/09/27 00:05:46;;;;;;;13.77;9.23;;;16.70;99.90;;;;;;5054839;28;20025;-70
2023/09/27 00:08:12;;;;;;;12.35;9.25;;;16.70;99.90;;;;;;5053591;28;20028;-71
2023/09/27 00:10:37;;;;;;;11.45;8.55;;;16.70;99.90;;;;;;5053388;28;20021;-70
2023/09/27 00:13:03;;;;;;;12.18;9.18;;;16.80;99.90;;;;;;5054638;28;20040;-70
2023/09/27 00:15:29;;;;;;;13.27;10.55;;;16.80;99.90;;;;;;5054844;28;20487;-70
2023/09/27 00:17:55;;;;;;;11.88;9.25;;;16.80;99.90;;;;;;5054392;28;20021;-70
2023/09/27 00:20:21;;;;;;;11.63;9.10;;;16.80;99.90;;;;;;5054940;28;20537;-70
2023/09/27 00:22:47;;;;;;;13.60;9.82;;;16.90;99.90;;;;;;5054183;28;20027;-70
2023/09/27 00:25:14;;;;;;;14.55;9.50;;;16.80;99.90;;;;;;5053639;28;20107;-70
2023/09/27 00:27:41;;;;;;;13.35;9.20;;;16.90;99.90;;;;;;5054139;28;20017;-71
2023/09/27 00:30:08;;;;;;;11.65;7.88;;;16.90;99.90;;;;;;5054710;28;20456;-70
2023/09/27 00:32:35;;;;;;;11.60;9.10;;;16.90;99.90;;;;;;5054302;28;20024;-70
2023/09/27 00:35:01;;;;;;;13.30;8.98;;;17.00;99.90;;;;;;5054715;28;20028;-70
2023/09/27 00:37:27;;;;;;;11.95;8.88;;;16.90;99.90;;;;;;5054048;28;20021;-70
2023/09/27 00:39:52;;;;;;;12.25;8.50;;;17.00;99.90;;;;;;5054723;28;20025;-70
2023/09/27 00:42:18;;;;;;;12.73;9.27;;;17.00;99.90;;;;;;5053902;28;20599;-70
2023/09/27 00:44:44;;;;;;;11.50;8.98;;;17.00;99.90;;;;;;5054451;28;20031;-70
2023/09/27 00:47:10;;;;;;;10.27;8.15;;;17.00;99.90;;;;;;5053957;28;20070;-70
2023/09/27 00:49:36;;;;;;;10.55;8.80;;;17.00;99.90;;;;;;5054320;28;20041;-70
2023/09/27 00:52:02;;;;;;;11.55;9.07;;;17.00;99.90;;;;;;5052654;28;20021;-71
2023/09/27 00:54:30;;;;;;;11.88;8.18;;;16.90;99.90;;;;;;5054275;28;20013;-70
2023/09/27 00:56:56;;;;;;;9.93;7.97;;;17.00;99.90;;;;;;5053382;28;20017;-70
2023/09/27 00:59:24;;;;;;;12.40;8.00;;;16.90;99.90;;;;;;5054154;28;20106;-70
2023/09/27 01:01:50;;;;;;;11.88;8.55;;;16.90;99.90;;;;;;5053716;28;20060;-70
2023/09/27 01:04:16;;;;;;;15.00;8.55;;;16.90;99.90;;;;;;5053835;28;20487;-70
2023/09/27 01:06:43;;;;;;;10.82;7.93;;;16.90;99.90;;;;;;5053406;28;20025;-70
2023/09/27 01:09:11;;;;;;;12.35;8.95;;;16.90;99.90;;;;;;5052595;28;20032;-70
2023/09/27 01:11:37;;;;;;;11.00;8.35;;;16.90;99.90;;;;;;5053247;28;20142;-71
2023/09/27 01:14:03;;;;;;;9.45;7.72;;;16.80;99.90;;;;;;5053876;28;20379;-70
2023/09/27 01:16:29;;;;;;;12.70;8.40;;;16.80;99.90;;;;;;5053410;28;20112;-71
2023/09/27 01:19:01;;;;;;;12.70;8.20;;;16.80;99.90;;;;;;5053791;28;20017;-70
2023/09/27 01:21:27;;;;;;;11.15;8.52;;;16.70;99.90;;;;;;5053045;28;20495;-70
2023/09/27 01:23:53;;;;;;;12.02;8.10;;;16.70;99.90;;;;;;5053720;28;20044;-70
2023/09/27 01:26:21;;;;;;;12.65;8.27;;;16.70;99.90;;;;;;5052942;28;20068;-70
2023/09/27 01:28:47;;;;;;;11.38;8.23;;;16.70;99.90;;;;;;5053823;28;20029;-70
2023/09/27 01:31:13;;;;;;;10.85;8.43;;;16.60;99.90;;;;;;5051723;28;20025;-70
2023/09/27 01:33:39;;;;;;;9.23;7.40;;;16.60;99.90;;;;;;5051842;28;20041;-71
2023/09/27 01:36:05;;;;;;;8.27;6.45;;;16.60;99.90;;;;;;5052982;28;20029;-71
2023/09/27 01:38:31;;;;;;;7.20;5.95;;;16.50;99.90;;;;;;5053204;28;20017;-70
2023/09/27 01:40:57;;;;;;;7.93;6.28;;;16.50;99.90;;;;;;5052952;28;20590;-70
2023/09/27 01:43:23;;;;;;;9.30;6.30;;;16.50;99.90;;;;;;5053054;28;20052;-70
2023/09/27 01:45:49;;;;;;;9.13;6.55;;;16.40;99.90;;;;;;5053173;28;20025;-70
2023/09/27 01:48:14;;;;;;;9.48;6.80;;;16.40;99.90;;;;;;5050965;28;20492;-70
2023/09/27 01:50:40;;;;;;;8.98;6.90;;;16.30;99.90;;;;;;5053092;28;20442;-70
2023/09/27 01:53:06;;;;;;;8.38;6.53;;;16.30;99.90;;;;;;5052509;28;20025;-70
2023/09/27 01:55:32;;;;;;;9.48;7.25;;;16.30;99.90;;;;;;5053002;28;20021;-70
2023/09/27 01:57:58;;;;;;;9.48;6.78;;;16.20;99.90;;;;;;5052326;28;20070;-70
2023/09/27 02:00:24;;;;;;;11.05;7.78;;;16.20;99.90;;;;;;5053222;28;20028;-71
2023/09/27 02:02:51;;;;;;;10.77;8.25;;;16.20;99.90;;;;;;5052164;28;20021;-70
2023/09/27 02:05:17;;;;;;;11.25;8.15;;;16.20;99.90;;;;;;5052953;28;20017;-70
2023/09/27 02:07:43;;;;;;;12.63;9.10;;;16.10;99.90;;;;;;5052235;28;20025;-70
2023/09/27 02:10:10;;;;;;;11.18;8.32;;;16.10;99.90;;;;;;5052700;28;20028;-70
2023/09/27 02:12:37;;;;;;;12.13;9.23;;;16.10;99.90;;;;;;5051986;28;20522;-70
2023/09/27 02:15:07;;;;;;;11.88;9.30;;;16.10;99.90;;;;;;5052666;28;20514;-70
2023/09/27 02:17:33;;;;;;;12.55;8.50;;;16.00;99.90;;;;;;5052137;28;20102;-70
2023/09/27 02:19:58;;;;;;;10.23;8.40;;;16.00;99.90;;;;;;5052696;28;20021;-70
2023/09/27 02:22:24;;;;;;;10.43;7.82;;;16.00;99.90;;;;;;5051830;28;20025;-70
2023/09/27 02:24:50;;;;;;;11.77;8.52;;;16.00;99.90;;;;;;5052446;28;20041;-70
2023/09/27 02:27:16;;;;;;;15.50;9.70;;;16.00;99.90;;;;;;5051807;28;20028;-70
2023/09/27 02:29:42;;;;;;;15.40;10.48;;;15.90;99.90;;;;;;5052358;28;20468;-70
2023/09/27 02:32:08;;;;;;;14.90;10.90;;;15.90;99.90;;;;;;5051661;28;20028;-70
2023/09/27 02:34:35;;;;;;;13.38;11.30;;;15.90;99.90;;;;;;5052335;28;20025;-70
2023/09/27 02:37:01;;;;;;;12.35;10.57;;;15.90;99.90;;;;;;5051472;28;20029;-70
2023/09/27 02:39:28;;;;;;;14.98;10.90;;;15.80;99.90;;;;;;5052229;28;20029;-71
2023/09/27 02:41:57;;;;;;;13.50;11.85;;;15.90;99.90;;;;;;5051843;28;20045;-70
2023/09/27 02:44:26;;;;;;;15.07;11.60;;;15.80;99.90;;;;;;5052510;28;20021;-70
2023/09/27 02:46:55;;;;;;;14.52;10.95;;;15.80;99.90;;;;;;5051688;28;20029;-70
2023/09/27 02:49:21;;;;;;;12.25;10.38;;;15.80;99.90;;;;;;5050593;28;20081;-70
2023/09/27 02:51:51;;;;;;;13.77;10.43;;;15.80;99.90;;;;;;5051456;28;20053;-70
2023/09/27 02:54:18;;;;;;;13.63;10.30;;;15.80;99.90;;;;;;5052074;28;20226;-70
2023/09/27 02:56:43;;;;;;;18.02;11.10;;;15.70;99.90;;;;;;5051426;28;20049;-70
2023/09/27 02:59:12;;;;;;;13.00;10.55;;;15.70;99.90;;;;;;5052176;28;20056;-70
2023/09/27 03:01:40;;;;;;;12.55;10.65;;;15.70;99.90;;;;;;5050000;28;20045;-70
2023/09/27 03:04:10;;;;;;;12.25;10.35;;;15.70;99.90;;;;;;5050687;28;20059;-70
2023/09/27 03:06:37;;;;;;;12.35;10.35;;;15.60;99.90;;;;;;5051483;28;20074;-70
2023/09/27 03:09:04;;;;;;;13.63;10.57;;;15.60;99.90;;;;;;5051824;28;20029;-70
2023/09/27 03:11:29;;;;;;;15.70;11.65;;;15.60;99.90;;;;;;5051355;28;20510;-71
2023/09/27 03:13:55;;;;;;;13.38;9.90;;;15.60;99.90;;;;;;5051757;28;20025;-70
2023/09/27 03:16:21;;;;;;;14.15;11.23;;;15.60;99.90;;;;;;5051341;28;20021;-70
2023/09/27 03:18:47;;;;;;;16.60;11.18;;;15.60;99.90;;;;;;5051660;28;20035;-70
2023/09/27 03:21:13;;;;;;;12.82;10.73;;;15.60;99.90;;;;;;5051522;28;20025;-70
2023/09/27 03:23:38;;;;;;;13.40;10.70;;;15.60;99.90;;;;;;5051663;28;20033;-71
2023/09/27 03:26:04;;;;;;;14.07;10.93;;;15.50;99.90;;;;;;5051835;28;20087;-70
2023/09/27 03:28:30;;;;;;;12.30;10.23;;;15.50;99.90;;;;;;5051136;28;20072;-70
2023/09/27 03:30:56;;;;;;;11.10;9.23;;;15.50;99.90;;;;;;5051672;28;20025;-70
2023/09/27 03:33:21;;;;;;;12.68;10.20;;;15.50;99.90;;;;;;5051077;28;20484;-70
2023/09/27 03:35:47;;;;;;;12.15;9.70;;;15.50;99.90;;;;;;5051748;28;20028;-70
2023/09/27 03:38:13;;;;;;;14.57;10.95;;;15.40;99.90;;;;;;5050977;28;20491;-70
2023/09/27 03:40:41;;;;;;;14.60;10.85;;;15.40;99.90;;;;;;5051854;28;20441;-70
2023/09/27 03:43:07;;;;;;;11.85;10.35;;;15.40;99.90;;;;;;5051122;28;20041;-70
2023/09/27 03:45:35;;;;;;;13.80;10.88;;;15.40;99.90;;;;;;5050290;28;20578;-70
2023/09/27 03:48:02;;;;;;;14.20;10.90;;;15.40;99.90;;;;;;5050844;28;20021;-70
2023/09/27 03:50:29;;;;;;;14.82;11.38;;;15.30;99.90;;;;;;5051314;28;20093;-70
2023/09/27 03:52:58;;;;;;;14.98;11.02;;;15.30;99.90;;;;;;5050742;28;20113;-70
2023/09/27 03:55:25;;;;;;;12.15;10.48;;;15.30;99.90;;;;;;5051652;28;20041;-70
2023/09/27 03:57:51;;;;;;;18.08;11.15;;;15.30;99.90;;;;;;5050715;28;20025;-70
2023/09/27 04:00:18;;;;;;;14.85;10.00;;;15.30;99.90;;;;;;5051414;28;20387;-70
2023/09/27 04:02:44;;;;;;;11.95;10.13;;;15.30;99.90;;;;;;5049464;28;20509;-70
2023/09/27 04:05:10;;;;;;;11.55;9.80;;;15.30;99.90;;;;;;5051379;28;20021;-70
2023/09/27 04:07:36;;;;;;;11.10;9.52;;;15.30;99.90;;;;;;5050700;28;20013;-70
2023/09/27 04:10:07;;;;;;;12.82;10.50;;;15.30;99.90;;;;;;5051248;28;20483;-70
2023/09/27 04:12:33;;;;;;;;;;;15.20;99.90;;;;;;5051079;28;20104;-70
2023/09/27 04:14:59;;;;;;;11.75;9.93;;;15.20;99.90;;;;;;5051575;28;19955;-70
2023/09/27 04:17:24;;;;;;;12.68;10.43;;;15.20;99.90;;;;;;5049704;28;20073;-70
2023/09/27 04:19:51;;;;;;;12.63;9.55;;;15.20;99.90;;;;;;5050182;28;20031;-70
2023/09/27 04:22:17;;;;;;;11.07;8.80;;;15.20;99.90;;;;;;5050473;28;20372;-70
2023/09/27 04:24:43;;;;;;;10.23;8.15;;;15.10;99.90;;;;;;5051181;28;20079;-70
2023/09/27 04:27:08;;;;;;;11.63;9.30;;;15.10;99.90;;;;;;5052820;28;20399;-70
2023/09/27 04:29:34;;;;;;;10.00;8.98;;;15.10;99.90;;;;;;5053548;28;20107;-70
2023/09/27 04:32:01;;;;;;;11.35;9.68;;;15.00;99.90;;;;;;5054039;28;20033;-70
2023/09/27 04:34:28;;;;;;;11.05;9.57;;;15.00;99.90;;;;;;5054684;28;20047;-70
2023/09/27 04:36:53;;;;;;;12.48;9.93;;;15.00;99.90;;;;;;5054052;28;20021;-70
2023/09/27 04:39:19;;;;;;;12.38;9.85;;;15.00;99.90;;;;;;5054447;28;20502;-70
2023/09/27 04:41:46;;;;;;;11.63;9.50;;;15.00;99.90;;;;;;5054204;28;20036;-70
2023/09/27 04:44:15;;;;;;;10.77;9.48;;;15.00;99.90;;;;;;5054197;28;20524;-70
2023/09/27 04:46:40;;;;;;;11.88;10.32;;;15.00;99.90;;;;;;5053742;28;20111;-70
2023/09/27 04:49:06;;;;;;;11.70;10.50;;;15.00;99.90;;;;;;5053860;28;20625;-70
2023/09/27 04:51:32;;;;;;;13.35;10.57;;;15.00;99.90;;;;;;5054238;28;20069;-70
2023/09/27 04:54:03;;;;;;;12.27;10.98;;;15.00;99.90;;;;;;5052772;28;20178;-70
2023/09/27 04:56:32;;;;;;;13.40;10.68;;;15.00;99.90;;;;;;5054158;28;20070;-70
2023/09/27 04:58:58;;;;;;;12.93;10.07;;;15.00;99.90;;;;;;5053540;28;20498;-70
2023/09/27 05:01:25;;;;;;;13.45;10.05;;;14.90;99.90;;;;;;5052874;28;20031;-70
2023/09/27 05:03:51;;;;;;;16.40;10.95;;;15.00;99.90;;;;;;5053481;28;20021;-70
2023/09/27 05:06:16;;;;;;;12.32;10.02;;;14.90;99.90;;;;;;5052791;28;20391;-70
2023/09/27 05:08:42;;;;;;;12.60;11.27;;;14.90;99.90;;;;;;5052258;28;20025;-70
2023/09/27 05:11:08;;;;;;;17.38;10.77;;;14.90;99.90;;;;;;5054018;28;20021;-70
2023/09/27 05:13:33;;;;;;;12.75;10.70;;;14.90;99.90;;;;;;5053382;28;20018;-70
2023/09/27 05:16:00;;;;;;;12.80;10.80;;;14.90;99.90;;;;;;5053777;28;20021;-70
2023/09/27 05:18:26;;;;;;;14.02;10.02;;;14.90;99.90;;;;;;5052940;28;20067;-70
2023/09/27 05:20:51;;;;;;;12.73;9.98;;;14.90;99.90;;;;;;5053674;28;20037;-70
2023/09/27 05:23:17;;;;;;;12.02;9.80;;;14.90;99.90;;;;;;5053211;28;20112;-70
2023/09/27 05:25:43;;;;;;;16.00;10.95;;;14.90;99.90;;;;;;5052407;28;20067;-70
2023/09/27 05:28:09;;;;;;;14.20;11.40;;;14.90;99.90;;;;;;5052982;28;20491;-70
2023/09/27 05:30:35;;;;;;;11.63;10.43;;;14.90;99.90;;;;;;5053457;28;20036;-70
2023/09/27 05:33:02;;;;;;;12.70;8.48;;;14.80;99.90;;;;;;5051547;28;20419;-70
2023/09/27 05:35:28;;;;;;;11.75;8.68;;;14.80;99.90;;;;;;5053645;28;20483;-70
2023/09/27 05:37:54;;;;;;;11.52;9.65;;;14.80;99.90;;;;;;5052548;28;20070;-70
2023/09/27 05:40:19;;;;;;;11.63;10.10;;;14.80;99.90;;;;;;5051991;28;20024;-70
2023/09/27 05:42:45;;;;;;;11.93;9.88;;;14.80;99.90;;;;;;5052720;28;20044;-70
2023/09/27 05:45:11;;;;;;;11.82;10.63;;;14.80;99.90;;;;;;5053168;28;20064;-70
2023/09/27 05:47:39;;;;;;;13.57;10.35;;;14.70;99.90;;;;;;5052523;28;20024;-70
2023/09/27 05:50:08;;;;;;;13.30;10.57;;;14.70;99.90;;;;;;5052929;28;20056;-70
2023/09/27 05:52:35;;;;;;;12.82;11.30;;;14.80;99.90;;;;;;5051171;28;20021;-70
2023/09/27 05:55:01;;;;;;;14.45;11.65;;;14.80;99.90;;;;;;5053148;28;20024;-70
2023/09/27 05:57:28;;;;;;;14.32;12.25;;;14.80;99.90;;;;;;5052540;28;20487;-70
2023/09/27 05:59:54;;;;;;;13.65;11.65;;;14.80;99.90;;;;;;5053010;28;20021;-70
2023/09/27 06:02:20;;;;;;;14.15;11.52;;;14.80;99.90;;;;;;5052215;28;20563;-70
2023/09/27 06:04:47;;;;;;;14.50;11.45;;;14.80;99.90;;;;;;5053052;28;20438;-70
2023/09/27 06:07:17;;;;;;;15.68;12.82;;;14.80;99.90;;;;;;5052521;28;20025;-70
2023/09/27 06:09:43;;;;;;;16.20;13.07;;;14.80;99.90;;;;;;5052742;28;20466;-70
2023/09/27 06:12:12;;;;;;;15.35;13.55;;;14.80;99.90;;;;;;5052246;28;20491;-70
2023/09/27 06:14:38;;;;;;;14.70;12.95;;;14.90;99.90;;;;;;5052575;28;20017;-70
2023/09/27 06:17:05;;;;;;;17.77;13.25;;;14.90;99.90;;;;;;5050901;28;20040;-70
2023/09/27 06:19:32;;;;;;;15.65;12.85;;;15.00;99.90;;;;;;5052285;28;20028;-71
2023/09/27 06:21:58;;;;;;;16.48;14.52;;;15.00;99.90;;;;;;5052102;28;20029;-70
2023/09/27 06:24:26;;;;;;;16.50;14.13;;;15.00;99.90;;;;;;5052593;28;20025;-70
2023/09/27 06:26:52;;;;;;;16.70;13.55;;;15.10;99.90;;;;;;5052185;28;20109;-70
2023/09/27 06:29:19;;;;;;;19.20;14.13;;;15.10;99.90;;;;;;5051987;28;20021;-70
2023/09/27 06:31:49;;;;;;;15.13;13.63;;;15.10;99.90;;;;;;5052134;28;20031;-70
2023/09/27 06:34:18;;;;;;;15.32;13.55;;;15.20;99.90;;;;;;5051866;28;20047;-70
2023/09/27 06:36:48;;;;;;;16.10;14.07;;;15.20;99.90;;;;;;5052477;28;20077;-70
2023/09/27 06:39:14;;;;;;;17.55;14.40;;;15.20;99.90;;;;;;5050743;28;20360;-70
2023/09/27 06:41:45;;;;;;;16.30;13.63;;;15.30;99.90;;;;;;5052361;28;20438;-70
2023/09/27 06:44:12;;;;;;;14.60;13.07;;;15.30;99.90;;;;;;5050375;28;20267;-70
2023/09/27 06:46:38;;;;;;;17.42;13.38;;;15.40;99.90;;;;;;5052090;28;20021;-70
2023/09/27 06:49:04;;;;;;;18.40;14.90;;;15.40;99.90;;;;;;5050759;28;20044;-70
2023/09/27 06:51:31;;;;;;;22.05;14.32;;;15.40;99.90;;;;;;5052208;28;20025;-70
2023/09/27 06:53:57;;;;;;;18.23;14.98;;;15.50;99.90;;;;;;5051637;28;20040;-70
2023/09/27 06:56:22;;;;;;;20.92;15.98;;;15.50;99.90;;;;;;5052052;28;20464;-70
2023/09/27 06:58:51;;;;;;;19.50;15.20;;;15.60;99.90;;;;;;5049724;28;20039;-70
2023/09/27 07:01:18;;;;;;;16.05;13.27;;;15.60;99.90;;;;;;5052174;28;20108;-70
2023/09/27 07:03:44;;;;;;;15.45;13.77;;;15.70;99.90;;;;;;5051360;28;20487;-70
2023/09/27 07:06:09;;;;;;;15.80;14.05;;;15.70;99.90;;;;;;5052056;28;20043;-70
2023/09/27 07:08:35;;;;;;;13.90;12.40;;;15.80;99.90;;;;;;5051384;28;20477;-70
2023/09/27 07:11:09;;;;;;;14.10;12.65;;;15.80;99.90;;;;;;5051868;28;20082;-70
2023/09/27 07:13:35;;;;;;;16.95;13.35;;;15.90;99.90;;;;;;5051199;28;20024;-70
2023/09/27 07:16:20;;;;;;;18.15;13.63;;;16.00;99.90;;;;;;5052044;28;20017;-70
2023/09/27 07:18:47;;;;;;;17.17;14.75;;;16.10;99.90;;;;;;5049922;28;20074;-70
2023/09/27 07:21:13;;;;;;;16.35;14.48;;;16.10;99.90;;;;;;5050491;28;20562;-70
2023/09/27 07:23:39;;;;;;;16.73;14.27;;;16.20;99.90;;;;;;5051087;28;20112;-70
2023/09/27 07:26:05;;;;;;;17.05;15.32;;;16.20;99.90;;;;;;5052119;28;20056;-70
2023/09/27 07:28:31;;;;;;;16.15;14.40;;;16.30;99.90;;;;;;5051130;28;20565;-70
2023/09/27 07:30:58;;;;;;;17.15;15.25;;;16.30;99.90;;;;;;5051627;28;20021;-70
2023/09/27 07:33:26;;;;;;;16.42;14.73;;;16.40;99.90;;;;;;5051306;28;20383;-70
2023/09/27 07:35:52;;;;;;;17.48;14.45;;;16.40;99.90;;;;;;5051898;28;20018;-70
2023/09/27 07:38:18;;;;;;;17.90;15.55;;;16.40;99.90;;;;;;5050968;28;20361;-70
2023/09/27 07:40:48;;;;;;;16.77;15.07;;;16.50;99.90;;;;;;5051501;28;20017;-70
2023/09/27 07:43:14;;;;;;;17.70;15.82;;;16.50;99.90;;;;;;5050772;28;20024;-70
2023/09/27 07:45:42;;;;;;;15.07;13.35;;;16.50;99.90;;;;;;5051591;28;20025;-70
2023/09/27 07:48:08;;;;;;;17.05;15.18;;;16.60;99.90;;;;;;5050880;28;20143;-70
2023/09/27 07:50:37;;;;;;;17.67;15.75;;;16.60;99.90;;;;;;5051322;28;20079;-70
2023/09/27 07:53:03;;;;;;;18.17;14.35;;;16.60;99.90;;;;;;5050831;28;20017;-70
2023/09/27 07:55:33;;;;;;;18.40;14.73;;;16.60;99.90;;;;;;5051287;28;20017;-70
2023/09/27 07:57:59;;;;;;;19.00;16.77;;;16.70;99.90;;;;;;5050895;28;20023;-70
2023/09/27 08:00:28;;;;;;;17.35;14.98;;;16.70;99.90;;;;;;5052789;28;20043;-70
2023/09/27 08:02:55;;;;;;;23.10;16.48;;;16.70;99.90;;;;;;5053200;28;20021;-70
2023/09/27 08:05:22;;;;;;;17.77;15.98;;;16.70;99.90;;;;;;5055493;28;20265;-71
2023/09/27 08:07:48;;;;;;;19.27;14.23;;;16.80;99.90;;;;;;5054368;28;20021;-70
2023/09/27 08:10:15;;;;;;;20.52;17.48;;;16.80;99.90;;;;;;5054987;28;20029;-70
2023/09/27 08:12:42;;;;;;;14.65;13.02;;;16.90;99.90;;;;;;5054374;28;20035;-70
2023/09/27 08:15:09;;;;;;;15.85;14.15;;;16.90;99.90;;;;;;5054963;28;20143;-70
2023/09/27 08:17:35;;;;;;;13.32;11.23;;;16.90;99.90;;;;;;5054442;28;20025;-70
2023/09/27 08:20:06;;;;;;;15.82;14.02;;;17.00;99.90;;;;;;5054716;28;20028;-70
2023/09/27 08:22:35;;;;;;;;;;;17.00;99.90;;;;;;5054818;28;20633;-70
2023/09/27 08:25:04;;;;;;;17.85;14.90;;;17.00;99.90;;;;;;5053194;28;19917;-70
2023/09/27 08:27:30;;;;;;;17.92;14.25;;;17.10;99.90;;;;;;5054477;28;20025;-70
2023/09/27 08:29:55;;;;;;;17.05;11.55;;;17.10;99.90;;;;;;5054420;28;20024;-71
2023/09/27 08:32:21;;;;;;;15.90;13.50;;;17.10;99.90;;;;;;5052879;28;20036;-70
2023/09/27 08:34:48;;;;;;;17.92;13.32;;;17.20;99.90;;;;;;5054348;28;20017;-70
2023/09/27 08:37:14;;;;;;;18.70;14.65;;;17.30;99.90;;;;;;5054280;28;20144;-70
2023/09/27 08:39:39;;;;;;;15.85;14.15;;;17.30;99.90;;;;;;5054248;28;20096;-70
2023/09/27 08:42:05;;;;;;;14.85;13.27;;;17.40;99.90;;;;;;5054405;28;20112;-70
2023/09/27 08:44:32;;;;;;;15.70;12.60;;;17.40;99.90;;;;;;5053836;28;20029;-70
2023/09/27 08:46:58;;;;;;;17.35;13.80;;;17.50;99.90;;;;;;5054383;28;20438;-70
2023/09/27 08:49:25;;;;;;;15.43;12.85;;;17.50;99.90;;;;;;5053466;28;20503;-70
2023/09/27 08:51:52;;;;;;;16.98;14.13;;;17.60;99.90;;;;;;5054173;28;20187;-70
2023/09/27 08:54:20;;;;;;;15.18;13.68;;;17.60;99.90;;;;;;5053793;28;20433;-70
2023/09/27 08:56:48;;;;;;;15.57;12.82;;;17.70;99.90;;;;;;5054162;28;20013;-70
2023/09/27 08:59:15;;;;;;;14.52;13.02;;;17.80;99.90;;;;;;5053545;28;20476;-71
2023/09/27 09:01:44;;;;;;;13.50;12.10;;;17.90;99.90;;;;;;5054309;28;20025;-70
2023/09/27 09:04:13;;;;;;;13.15;10.85;;;18.00;99.90;;;;;;5053461;28;20036;-71
2023/09/27 09:06:40;;;;;;;15.02;12.02;;;18.10;99.90;;;;;;5053988;28;20059;-70
2023/09/27 09:09:11;;;;;;;17.92;13.85;;;18.20;99.90;;;;;;5053458;28;20024;-70
2023/09/27 09:11:47;;;;;;;18.30;15.00;;;18.30;99.90;;;;;;5051926;28;20052;-70
2023/09/27 09:14:17;;;;;;;17.98;12.82;;;18.40;99.90;;;;;;5053238;28;20021;-70
2023/09/27 09:16:51;;;;;;;16.05;12.30;;;18.40;99.90;;;;;;5053831;28;20033;-70
2023/09/27 09:19:25;;;;;;;14.35;10.65;;;18.50;99.90;;;;;;5053164;28;20505;-70
2023/09/27 09:22:08;;;;;;;13.63;11.30;;;18.60;99.90;;;;;;5053775;28;20571;-70
2023/09/27 09:24:41;;;;;;;11.98;10.18;;;18.70;99.90;;;;;;5053232;28;20025;-70
2023/09/27 09:27:12;;;;;;;15.48;12.40;;;18.80;99.90;;;;;;5053632;28;20029;-70
2023/09/27 09:29:59;;;;;;;12.85;10.70;;;18.90;99.90;;;;;;5053237;28;20029;-70
2023/09/27 09:32:26;;;;;;;11.52;9.35;;;19.10;99.90;;;;;;5053225;28;20545;-70
2023/09/27 09:34:53;;;;;;;12.20;10.73;;;19.20;99.90;;;;;;5053139;28;20029;-70
2023/09/27 09:37:19;;;;;;;14.05;10.32;;;19.30;99.90;;;;;;5053520;28;20014;-70
2023/09/27 09:39:47;;;;;;;13.20;10.02;;;19.40;99.90;;;;;;5052785;28;20099;-70
2023/09/27 09:42:31;;;;;;;11.98;9.43;;;19.50;99.90;;;;;;5052040;28;20491;-70
2023/09/27 09:45:07;;;;;;;11.10;8.70;;;19.60;99.90;;;;;;5052996;28;20025;-70
2023/09/27 09:47:37;;;;;;;14.52;9.32;;;19.70;99.90;;;;;;5052787;28;20116;-70
2023/09/27 09:50:06;;;;;;;8.25;7.07;;;19.70;99.90;;;;;;5052782;28;20060;-70
2023/09/27 09:52:35;;;;;;;10.85;8.38;;;19.80;99.90;;;;;;5053349;28;20025;-71
2023/09/27 09:55:03;;;;;;;8.93;7.40;;;19.90;99.90;;;;;;5052836;28;20210;-70
2023/09/27 09:57:36;;;;;;;9.85;7.55;;;20.00;99.90;;;;;;5051567;28;20013;-70
2023/09/27 10:00:25;;;;;;;10.27;7.30;;;20.00;99.90;;;;;;5051442;28;20082;-70
2023/09/27 10:03:00;;;;;;;9.45;7.43;;;20.10;99.90;;;;;;5052543;28;20063;-70
2023/09/27 10:05:28;;;;;;;10.65;7.13;;;20.10;99.90;;;;;;5052992;28;20071;-71
2023/09/27 10:07:54;;;;;;;8.30;6.53;;;20.20;99.90;;;;;;5052757;28;20463;-70
2023/09/27 10:10:21;;;;;;;9.90;7.38;;;20.20;99.90;;;;;;5052639;28;20104;-70
2023/09/27 10:12:52;;;;;;;8.52;6.57;;;20.30;99.90;;;;;;5052386;28;20037;-70
2023/09/27 10:15:21;;;;;;;9.88;6.38;;;20.40;99.90;;;;;;5052643;28;20017;-71
2023/09/27 10:17:47;;;;;;;10.55;7.03;;;20.40;99.90;;;;;;5051042;28;20016;-70
2023/09/27 10:20:15;;;;;;;9.32;6.32;;;20.50;99.90;;;;;;5052489;28;20024;-71
2023/09/27 10:22:45;;;;;;;8.55;5.72;;;20.60;99.90;;;;;;5052142;28;20510;-70
2023/09/27 10:25:23;;;;;;;9.02;7.25;;;20.70;99.90;;;;;;5052488;28;20032;-70
2023/09/27 10:28:12;;;;;;;9.82;6.40;;;20.80;99.90;;;;;;5051974;28;20021;-70
2023/09/27 10:30:40;;;;;;;8.00;5.43;;;20.90;99.90;;;;;;5051311;28;20115;-71
2023/09/27 10:33:15;;;;;;;6.90;5.82;;;21.00;99.90;;;;;;5050589;28;20021;-71
2023/09/27 10:36:00;;;;;;;7.15;5.10;;;21.00;99.90;;;;;;5051156;28;20116;-70
2023/09/27 10:38:48;;;;;;;9.15;5.90;;;21.00;99.90;;;;;;5051716;28;20535;-71
2023/09/27 10:41:32;;;;;;;8.02;5.32;;;21.10;99.90;;;;;;5052193;28;20548;-71
2023/09/27 10:44:02;;;;;;;6.97;5.03;;;21.10;99.90;;;;;;5052001;28;20029;-71
2023/09/27 10:46:40;;;;;;;9.20;5.25;;;21.20;99.90;;;;;;5052174;28;20107;-70
2023/09/27 10:49:06;;;;;;;8.30;5.20;;;21.20;99.90;;;;;;5051169;28;20055;-70
2023/09/27 10:51:31;;;;;;;7.70;4.60;;;21.30;99.90;;;;;;5052228;28;20036;-70
2023/09/27 10:53:59;;;;;;;8.15;4.80;;;21.30;99.90;;;;;;5051559;28;20122;-71
2023/09/27 10:56:25;;;;;;;8.52;5.00;;;21.40;99.90;;;;;;5052166;28;20013;-71
2023/09/27 10:58:52;;;;;;;9.88;5.78;;;21.40;99.90;;;;;;5051342;28;20455;-71
2023/09/27 11:01:22;;;;;;;7.97;5.53;;;21.40;99.90;;;;;;5050661;28;20107;-70
2023/09/27 11:03:56;;;;;;;7.55;5.45;;;21.40;99.90;;;;;;5051386;28;20024;-70
2023/09/27 11:06:22;;;;;;;10.73;5.28;;;21.50;99.90;;;;;;5051874;28;20028;-70
2023/09/27 11:08:48;;;;;;;11.20;6.45;;;21.50;99.90;;;;;;5051242;28;20025;-70
2023/09/27 11:11:14;;;;;;;13.85;6.95;;;21.60;99.90;;;;;;5051670;28;20029;-70
2023/09/27 11:13:44;;;;;;;10.10;6.03;;;21.60;99.90;;;;;;5051132;28;20387;-71
2023/09/27 11:16:14;;;;;;;11.27;7.55;;;21.70;99.90;;;;;;5050818;28;20472;-70
2023/09/27 11:18:48;;;;;;;10.00;6.73;;;21.70;99.90;;;;;;5051409;28;20438;-71
2023/09/27 11:21:15;;;;;;;10.07;5.85;;;21.80;99.90;;;;;;5052082;28;20780;-70
2023/09/27 11:23:56;;;;;;;8.90;6.20;;;21.80;99.90;;;;;;5051016;28;20025;-71
2023/09/27 11:26:26;;;;;;;10.75;6.22;;;21.80;99.90;;;;;;5050412;28;20029;-71
2023/09/27 11:29:00;;;;;;;9.57;5.35;;;21.90;99.90;;;;;;5049891;28;20147;-71
2023/09/27 11:31:30;;;;;;;8.40;5.70;;;21.90;99.90;;;;;;5051713;28;20120;-71
2023/09/27 11:34:18;;;;;;;8.45;5.45;;;21.90;99.90;;;;;;5051124;28;20021;-70
2023/09/27 11:36:45;;;;;;;7.20;5.07;;;21.90;99.90;;;;;;5054934;28;20021;-71
2023/09/27 11:39:13;;;;;;;8.65;5.80;;;21.90;99.90;;;;;;5055480;28;20032;-71
2023/09/27 11:41:39;;;;;;;8.65;5.32;;;21.90;99.90;;;;;;5055621;28;20040;-71
2023/09/27 11:44:34;;;;;;;10.48;5.93;;;21.90;99.90;;;;;;5054952;28;20029;-71
2023/09/27 11:47:10;;;;;;;9.60;5.95;;;22.00;99.90;;;;;;5054585;28;20040;-71
2023/09/27 11:49:36;;;;;;;8.13;5.53;;;22.00;99.90;;;;;;5054598;28;20107;-71
2023/09/27 11:52:03;;;;;;;7.75;5.63;;;22.10;99.90;;;;;;5055313;28;20025;-71
2023/09/27 11:54:29;;;;;;;8.38;5.28;;;22.20;99.90;;;;;;5054974;28;20104;-71
2023/09/27 11:56:55;;;;;;;11.82;5.93;;;22.20;99.90;;;;;;5055287;28;20140;-71
2023/09/27 11:59:20;;;;;;;9.88;5.30;;;22.30;99.90;;;;;;5054816;28;20040;-71
2023/09/27 12:01:46;;;;;;;8.45;5.35;;;22.40;99.90;;;;;;5055212;28;20021;-71
2023/09/27 12:04:12;;;;;;;6.82;5.07;;;22.50;99.90;;;;;;5054589;28;20021;-70
2023/09/27 12:06:38;;;;;;;8.63;4.78;;;22.60;99.90;;;;;;5055148;28;20021;-71
2023/09/27 12:09:05;;;;;;;9.93;6.28;;;22.70;99.90;;;;;;5054370;28;20029;-70
2023/09/27 12:11:31;;;;;;;7.65;5.10;;;22.80;99.90;;;;;;5055105;28;20027;-71
2023/09/27 12:13:57;;;;;;;12.35;6.68;;;22.80;99.90;;;;;;5054477;28;20029;-71
2023/09/27 12:16:24;;;;;;;10.93;5.25;;;23.00;99.90;;;;;;5055095;28;20436;-70
2023/09/27 12:18:50;;;;;;;9.18;5.40;;;23.00;99.90;;;;;;5054364;28;20024;-71
2023/09/27 12:21:15;;;;;;;8.65;4.32;;;23.10;99.90;;;;;;5055124;28;20096;-71
2023/09/27 12:23:43;;;;;;;8.45;5.18;;;23.10;99.90;;;;;;5054146;28;20390;-71
2023/09/27 12:26:10;;;;;;;7.45;5.80;;;23.20;99.90;;;;;;5054744;28;20025;-71
2023/09/27 12:28:37;;;;;;;8.20;5.10;;;23.30;99.90;;;;;;5054076;28;20475;-71
2023/09/27 12:31:06;;;;;;;7.43;4.68;;;23.20;99.90;;;;;;5054600;28;20098;-71
2023/09/27 12:33:33;;;;;;;8.32;5.07;;;23.30;99.90;;;;;;5054170;28;20027;-71
2023/09/27 12:35:59;;;;;;;10.15;5.47;;;23.30;99.90;;;;;;5054501;28;20029;-71
2023/09/27 12:38:26;;;;;;;7.70;5.03;;;23.40;99.90;;;;;;5054290;28;20021;-70